Time;durP1;ratioP1;P1;durP2;ratioP2;P2;SDS_P1;SDS_P2;PMS_P1;PMS_P2;Temp;Humidity;BMP_temperature;BMP_pressure;BME280_temperature;BME280_humidity;BME280_pressure;Samples;Min_cycle;Max_cycle;Signal;HPM_P1;HPM_P2
2022/02/11 00:08:17;;;;;;;;;;;;;;;10.84;53.13;101607.22;4956678;29;19914;-77
2022/02/11 00:11:01;;;;;;;;;;;;;;;10.94;52.61;101608.97;4957082;29;19922;-78
2022/02/11 00:13:46;;;;;;;;;;;;;;;10.98;52.93;101609.97;4937153;29;20279;-78
2022/02/11 00:16:31;;;;;;;;;;;;;;;11.03;52.50;101605.28;4937359;29;19915;-77
2022/02/11 00:19:15;;;;;;;;;;;;;;;10.87;53.00;101598.44;4938466;29;19915;-78
2022/02/11 00:21:59;;;;;;;;;;;;;;;10.75;52.76;101592.66;4942380;29;19914;-77
2022/02/11 00:24:44;;;;;;;;;;;;;;;10.90;52.96;101600.59;4955987;28;20371;-77
2022/02/11 00:36:22;;;;;;;;;;;;;;;11.11;51.64;101582.84;4955628;28;20303;-77
2022/02/11 00:45:31;;;;;;;;;;;;;;;11.07;52.76;101587.22;4955565;28;19919;-78
2022/02/11 01:03:06;;;;;;;;;;;;;;;11.09;52.08;101585.03;4956044;28;20331;-78
2022/02/11 01:05:51;;;;;;;;;;;;;;;11.13;52.43;101587.97;4956778;28;19914;-78
2022/02/11 01:08:36;;;;;;;;;;;;;;;11.15;52.35;101585.75;4956288;28;20375;-77
2022/02/11 01:11:36;;;;;;;;;;;;;;;11.10;52.21;101586.66;4956235;28;19919;-77
2022/02/11 01:14:32;;;;;;;;;;;;;;;11.02;52.13;101590.03;4954966;28;19915;-78
2022/02/11 01:17:30;;;;;;;;;;;;;;;11.07;52.33;101581.78;4955911;28;19914;-78
2022/02/11 01:23:54;;;;;;;;;;;;;;;11.05;52.59;101586.75;4955596;28;19918;-78
2022/02/11 01:33:03;;;;;;;;;;;;;;;10.83;53.08;101575.66;4936638;29;19919;-78
2022/02/11 01:38:56;;;;;;;;;;;;;;;10.77;53.25;101562.44;4959052;28;19915;-77
2022/02/11 01:50:37;;;;;;;;;;;;;;;10.87;52.53;101548.69;4955374;29;20486;-77
2022/02/11 01:53:44;;;;;;;;;;;;;;;10.85;52.44;101545.44;4955550;28;19918;-78
2022/02/11 02:26:59;;;;;;;;;;;;;;;10.80;52.69;101505.53;4954583;28;19914;-77
2022/02/11 02:57:07;;;;;;;;;;;;;;;10.77;53.23;101489.00;4953778;28;19914;-77
2022/02/11 03:55:27;;;;;;;;;;;;;;;10.64;54.71;101474.22;4952744;29;19914;-77
2022/02/11 04:23:01;;;;;;;;;;;;;;;10.52;54.86;101476.59;4957317;28;19918;-77
2022/02/11 04:26:23;;;;;;;;;;;;;;;10.56;55.02;101483.06;4958191;28;20403;-77
2022/02/11 04:56:32;;;;;;;;;;;;;;;10.40;54.27;101479.78;4956167;29;19914;-77
2022/02/11 04:59:38;;;;;;;;;;;;;;;10.44;54.25;101469.91;4956442;29;19914;-78
2022/02/11 05:02:26;;;;;;;;;;;;;;;10.48;54.10;101470.13;4956376;29;19927;-78
2022/02/11 05:05:11;;;;;;;;;;;;;;;10.44;54.00;101463.66;4955219;29;19922;-77
2022/02/11 05:07:56;;;;;;;;;;;;;;;10.52;53.96;101468.44;4956409;28;19914;-77
2022/02/11 05:10:40;;;;;;;;;;;;;;;10.67;52.80;101462.75;4955708;28;19914;-78
2022/02/11 05:13:26;;;;;;;;;;;;;;;10.32;52.66;101457.88;4958187;28;20383;-77
2022/02/11 05:16:10;;;;;;;;;;;;;;;10.39;54.48;101467.28;4967627;28;19914;-78
2022/02/11 05:18:55;;;;;;;;;;;;;;;10.41;52.83;101459.66;4956624;28;19915;-78
2022/02/11 05:21:39;;;;;;;;;;;;;;;10.31;53.46;101459.00;4955926;29;19915;-77
2022/02/11 05:24:23;;;;;;;;;;;;;;;10.35;53.10;101449.13;4955290;29;19919;-77
2022/02/11 05:27:08;;;;;;;;;;;;;;;10.33;53.33;101454.88;4955544;29;19915;-77
2022/02/11 05:29:52;;;;;;;;;;;;;;;10.47;52.31;101458.44;4955924;29;19914;-77
2022/02/11 05:32:36;;;;;;;;;;;;;;;10.46;52.52;101456.84;4955739;29;20299;-77
2022/02/11 05:35:21;;;;;;;;;;;;;;;10.44;54.65;101453.59;4956942;28;19915;-78
2022/02/11 05:38:06;;;;;;;;;;;;;;;10.26;52.91;101446.25;4951757;28;19915;-78
2022/02/11 05:40:51;;;;;;;;;;;;;;;10.37;53.84;101452.34;4965104;28;19915;-76
2022/02/11 05:43:35;;;;;;;;;;;;;;;10.35;52.87;101438.25;4973970;28;19918;-78
2022/02/11 05:46:21;;;;;;;;;;;;;;;10.55;51.88;101451.53;4938484;29;20291;-77
2022/02/11 05:49:05;;;;;;;;;;;;;;;10.54;52.41;101448.00;4955321;29;19914;-78
2022/02/11 05:51:50;;;;;;;;;;;;;;;10.29;53.58;101442.97;4955353;28;19914;-77
2022/02/11 05:54:34;;;;;;;;;;;;;;;10.33;53.16;101446.72;4954678;28;19915;-78
2022/02/11 05:57:18;;;;;;;;;;;;;;;10.41;53.14;101447.97;4955062;29;19918;-78
2022/02/11 06:00:06;;;;;;;;;;;;;;;10.39;53.38;101450.16;4955237;28;19918;-78
2022/02/11 06:02:55;;;;;;;;;;;;;;;10.48;53.21;101442.94;4955214;29;19914;-78
2022/02/11 06:05:39;;;;;;;;;;;;;;;10.53;52.62;101442.84;4954116;29;19914;-78
2022/02/11 06:08:24;;;;;;;;;;;;;;;10.25;54.82;101444.66;4954832;29;19914;-77
2022/02/11 06:11:08;;;;;;;;;;;;;;;10.21;55.21;101449.88;4954637;29;19914;-77
2022/02/11 06:13:53;;;;;;;;;;;;;;;10.28;54.56;101439.44;4953980;28;19945;-77
2022/02/11 06:16:37;;;;;;;;;;;;;;;10.40;53.72;101441.72;4961478;28;19914;-77
2022/02/11 06:19:21;;;;;;;;;;;;;;;10.39;53.64;101437.38;4970590;28;19914;-77
2022/02/11 06:22:06;;;;;;;;;;;;;;;10.37;54.00;101446.91;4961653;28;19913;-79
2022/02/11 06:24:50;;;;;;;;;;;;;;;10.35;53.76;101449.13;4954978;28;19914;-77
2022/02/11 06:27:35;;;;;;;;;;;;;;;10.33;53.09;101446.72;4962806;28;19914;-77
2022/02/11 06:30:19;;;;;;;;;;;;;;;10.39;52.91;101452.88;4967806;28;19913;-79
2022/02/11 06:33:03;;;;;;;;;;;;;;;10.36;52.62;101453.47;4954355;29;20311;-77
2022/02/11 06:35:48;;;;;;;;;;;;;;;10.28;53.08;101455.75;4951254;28;19914;-77
2022/02/11 06:38:32;;;;;;;;;;;;;;;10.30;54.54;101452.75;4950658;28;19914;-77
2022/02/11 06:41:17;;;;;;;;;;;;;;;10.38;52.92;101448.53;4959185;28;19914;-77
2022/02/11 06:44:01;;;;;;;;;;;;;;;10.33;52.88;101454.88;4953674;29;19914;-77
2022/02/11 06:46:46;;;;;;;;;;;;;;;10.36;52.84;101450.75;4954264;28;19922;-77
2022/02/11 06:49:31;;;;;;;;;;;;;;;10.28;53.06;101449.50;4954682;29;19914;-77
2022/02/11 06:52:15;;;;;;;;;;;;;;;10.29;53.10;101457.38;4954330;28;19918;-77
2022/02/11 06:55:00;;;;;;;;;;;;;;;10.22;53.86;101451.50;4953553;28;19915;-77
2022/02/11 06:57:44;;;;;;;;;;;;;;;10.24;53.60;101453.91;4954861;28;20161;-77
2022/02/11 07:00:28;;;;;;;;;;;;;;;10.27;53.26;101447.88;4954226;28;19929;-77
2022/02/11 07:03:13;;;;;;;;;;;;;;;10.28;53.15;101455.75;4954226;28;19915;-77
2022/02/11 07:05:58;;;;;;;;;;;;;;;10.22;53.67;101456.13;4953805;28;20403;-77
2022/02/11 07:08:43;;;;;;;;;;;;;;;10.31;54.29;101459.00;4954096;28;19914;-77
2022/02/11 07:11:28;;;;;;;;;;;;;;;10.38;54.70;101457.50;4954356;28;19922;-77
2022/02/11 07:14:12;;;;;;;;;;;;;;;10.32;54.13;101457.88;4949117;28;20299;-77
2022/02/11 07:16:56;;;;;;;;;;;;;;;10.29;54.82;101462.81;4944417;28;19914;-77
2022/02/11 07:19:41;;;;;;;;;;;;;;;10.38;55.09;101467.56;4946035;28;19914;-77
2022/02/11 07:22:34;;;;;;;;;;;;;;;10.39;55.01;101466.47;4948179;28;19914;-78
2022/02/11 07:25:19;;;;;;;;;;;;;;;10.35;55.24;101468.97;4949853;29;19945;-78
2022/02/11 07:28:04;;;;;;;;;;;;;;;10.36;55.42;101477.94;4944152;28;20048;-76
2022/02/11 07:30:50;;;;;;;;;;;;;;;10.36;53.80;101472.50;4942463;28;19914;-77
2022/02/11 07:33:34;;;;;;;;;;;;;;;10.42;53.50;101476.75;4952724;29;19927;-77
2022/02/11 07:36:19;;;;;;;;;;;;;;;10.37;53.83;101474.91;4954763;28;19914;-77
2022/02/11 07:39:05;;;;;;;;;;;;;;;10.32;54.35;101475.00;4952555;28;19918;-77
2022/02/11 07:41:49;;;;;;;;;;;;;;;10.46;55.34;101484.03;4947622;28;19914;-76
2022/02/11 07:44:34;;;;;;;;;;;;;;;10.42;55.00;101482.19;4956846;29;19922;-77
2022/02/11 07:47:18;;;;;;;;;;;;;;;10.43;55.21;101475.66;4957753;29;19914;-77
2022/02/11 07:50:03;;;;;;;;;;;;;;;10.42;55.36;101487.63;4957607;28;20386;-77
2022/02/11 07:52:48;;;;;;;;;;;;;;;10.28;55.43;101493.81;4954318;28;20403;-77
2022/02/11 07:55:32;;;;;;;;;;;;;;;10.38;55.69;101489.31;4956616;28;19914;-80
2022/02/11 07:58:20;;;;;;;;;;;;;;;10.17;54.39;101486.09;4962347;29;19914;-85
2022/02/11 08:01:05;;;;;;;;;;;;;;;10.12;54.49;101492.38;4971139;28;19919;-85
2022/02/11 08:03:51;;;;;;;;;;;;;;;9.87;54.16;101481.84;4955230;29;20295;-84
2022/02/11 08:06:35;;;;;;;;;;;;;;;9.39;55.87;101478.38;4956030;29;19915;-87
2022/02/11 08:09:20;;;;;;;;;;;;;;;9.37;56.06;101486.78;4969671;28;19915;-84
2022/02/11 08:12:05;;;;;;;;;;;;;;;9.55;55.57;101493.34;4974373;28;19918;-84
2022/02/11 08:14:50;;;;;;;;;;;;;;;9.22;56.68;101489.66;4971421;28;19914;-84
2022/02/11 08:17:34;;;;;;;;;;;;;;;9.14;57.52;101490.28;4969270;28;20415;-83
2022/02/11 08:20:19;;;;;;;;;;;;;;;9.24;56.65;101492.91;4970387;28;19918;-86
2022/02/11 08:23:04;;;;;;;;;;;;;;;9.15;56.51;101494.59;4963071;29;20384;-86
2022/02/11 08:25:48;;;;;;;;;;;;;;;9.18;56.51;101491.34;4969395;28;19918;-84
2022/02/11 08:28:33;;;;;;;;;;;;;;;9.29;55.88;101495.56;4970757;28;19914;-84
2022/02/11 08:31:17;;;;;;;;;;;;;;;8.91;57.74;101485.63;4967865;28;19914;-85
2022/02/11 08:34:02;;;;;;;;;;;;;;;9.02;57.23;101489.84;4974596;28;19919;-84
2022/02/11 08:36:47;;;;;;;;;;;;;;;9.09;56.59;101487.63;4962918;29;20396;-85
2022/02/11 08:39:34;;;;;;;;;;;;;;;9.07;56.31;101495.22;4970573;28;20295;-84
2022/02/11 08:42:19;;;;;;;;;;;;;;;9.33;55.90;101485.75;4969246;28;19915;-84
2022/02/11 08:45:05;;;;;;;;;;;;;;;9.22;56.33;101486.94;4963392;29;19914;-86
2022/02/11 08:47:50;;;;;;;;;;;;;;;9.18;56.23;101495.94;4966612;29;19914;-84
2022/02/11 08:50:36;;;;;;;;;;;;;;;9.39;56.05;101487.31;4967895;28;20686;-84
2022/02/11 08:53:22;;;;;;;;;;;;;;;9.18;56.99;101491.34;4971769;28;19918;-84
2022/02/11 08:56:07;;;;;;;;;;;;;;;9.11;57.22;101498.19;4968452;29;19915;-84
2022/02/11 08:58:52;;;;;;;;;;;;;;;9.38;56.33;101493.84;4972401;28;19914;-84
2022/02/11 09:01:36;;;;;;;;;;;;;;;9.62;55.20;101501.97;4972035;28;20412;-84
2022/02/11 09:04:21;;;;;;;;;;;;;;;9.77;54.78;101504.50;4960342;28;19915;-83
2022/02/11 09:07:07;;;;;;;;;;;;;;;9.77;54.84;101501.78;4970015;28;19914;-84
2022/02/11 09:09:51;;;;;;;;;;;;;;;9.94;54.06;101498.59;4958231;28;19915;-83
2022/02/11 09:12:35;;;;;;;;;;;;;;;10.21;53.14;101503.41;4962179;28;19922;-83
2022/02/11 09:15:21;;;;;;;;;;;;;;;10.23;53.38;101502.03;4972808;28;19914;-82
2022/02/11 09:18:06;;;;;;;;;;;;;;;10.46;53.30;101499.53;4973474;28;19914;-83
2022/02/11 09:20:50;;;;;;;;;;;;;;;10.71;53.38;101502.69;4973703;28;19914;-85
2022/02/11 09:23:35;;;;;;;;;;;;;;;10.67;52.28;101501.63;4975914;28;19918;-84
2022/02/11 09:26:20;;;;;;;;;;;;;;;10.86;51.41;101498.91;4976780;28;19915;-83
2022/02/11 09:29:05;;;;;;;;;;;;;;;10.42;51.97;101498.50;4974735;28;19915;-83
2022/02/11 09:31:51;;;;;;;;;;;;;;;10.66;51.33;101501.94;4969475;29;19937;-83
2022/02/11 09:34:37;;;;;;;;;;;;;;;11.59;48.92;101500.81;4977268;28;19922;-84
2022/02/11 09:37:21;;;;;;;;;;;;;;;10.95;50.50;101502.53;4958170;28;19914;-80
2022/02/11 09:40:07;;;;;;;;;;;;;;;11.24;50.52;101501.47;4958286;29;19922;-80
2022/02/11 09:42:53;;;;;;;;;;;;;;;11.41;49.21;101499.81;4958302;28;19914;-80
2022/02/11 09:45:38;;;;;;;;;;;;;;;11.02;49.19;101494.78;4958403;28;19914;-80
2022/02/11 09:48:25;;;;;;;;;;;;;;;12.31;46.80;101490.03;4957054;28;19914;-80
2022/02/11 09:51:10;;;;;;;;;;;;;;;12.06;47.76;101506.97;4958322;28;20311;-80
2022/02/11 09:53:54;;;;;;;;;;;;;;;11.00;49.84;101502.47;4960825;28;19918;-81
2022/02/11 09:56:38;;;;;;;;;;;;;;;11.08;49.39;101504.47;4956452;28;19914;-81
2022/02/11 09:59:23;;;;;;;;;;;;;;;11.69;47.93;101511.50;4958185;28;19914;-81
2022/02/11 10:02:09;;;;;;;;;;;;;;;11.33;47.97;101505.13;4949050;28;19918;-81
2022/02/11 10:04:54;;;;;;;;;;;;;;;10.00;52.50;101502.06;4953600;28;19914;-80
2022/02/11 10:07:45;;;;;;;;;;;;;;;10.57;51.58;101509.13;4953484;28;19913;-84
2022/02/11 10:10:47;;;;;;;;;;;;;;;10.68;50.33;101502.44;4965074;28;19914;-82
2022/02/11 10:13:33;;;;;;;;;;;;;;;11.24;49.33;101506.94;4966127;28;19922;-83
2022/02/11 10:16:22;;;;;;;;;;;;;;;11.66;48.11;101508.59;4967057;29;19923;-82
2022/02/11 10:19:07;;;;;;;;;;;;;;;11.84;47.99;101497.59;4967900;28;19918;-81
2022/02/11 10:22:05;;;;;;;;;;;;;;;12.05;46.99;101497.16;4968051;29;19914;-82
2022/02/11 10:24:51;;;;;;;;;;;;;;;11.76;47.81;101497.53;4968345;28;19914;-82
2022/02/11 10:27:36;;;;;;;;;;;;;;;11.45;47.89;101491.84;4967438;28;19914;-82
2022/02/11 10:30:22;;;;;;;;;;;;;;;11.20;47.91;101484.16;4967171;29;19914;-82
2022/02/11 10:33:07;;;;;;;;;;;;;;;11.31;47.56;101485.56;4968994;29;19923;-82
2022/02/11 10:35:55;;;;;;;;;;;;;;;11.86;46.61;101489.13;4969126;28;19915;-82
2022/02/11 10:38:39;;;;;;;;;;;;;;;12.11;46.63;101494.03;4971290;28;19915;-83
2022/02/11 10:41:25;;;;;;;;;;;;;;;12.69;45.49;101491.34;4965094;28;19918;-84
2022/02/11 10:44:11;;;;;;;;;;;;;;;12.65;45.35;101484.06;4951838;28;19915;-82
2022/02/11 10:47:02;;;;;;;;;;;;;;;12.52;45.94;101490.38;4966569;28;20306;-82
2022/02/11 10:49:47;;;;;;;;;;;;;;;12.82;45.83;101478.72;4961346;28;19926;-82
2022/02/11 10:52:34;;;;;;;;;;;;;;;12.81;45.47;101469.72;4964513;28;19914;-82
2022/02/11 10:55:21;;;;;;;;;;;;;;;13.21;44.54;101469.81;4960646;28;19914;-81
2022/02/11 10:58:14;;;;;;;;;;;;;;;13.40;43.57;101473.13;4958068;28;19918;-83
2022/02/11 11:01:01;;;;;;;;;;;;;;;13.78;43.27;101467.13;4966926;28;19918;-83
2022/02/11 11:03:47;;;;;;;;;;;;;;;13.46;43.89;101458.19;4981442;28;19918;-82
2022/02/11 11:06:31;;;;;;;;;;;;;;;13.17;44.74;101461.44;4978982;28;19914;-82
2022/02/11 11:09:18;;;;;;;;;;;;;;;13.19;44.51;101463.88;4979329;28;19918;-82
2022/02/11 11:12:03;;;;;;;;;;;;;;;12.63;46.20;101456.28;4979640;28;19914;-82
2022/02/11 11:14:50;;;;;;;;;;;;;;;12.32;46.59;101458.94;4978166;28;19918;-82
2022/02/11 11:17:36;;;;;;;;;;;;;;;12.27;47.19;101448.16;4976369;28;19914;-85
2022/02/11 11:20:22;;;;;;;;;;;;;;;12.56;46.28;101445.81;4958673;28;20304;-82
2022/02/11 11:23:17;;;;;;;;;;;;;;;12.20;46.81;101445.03;4952469;28;20415;-82
2022/02/11 11:26:06;;;;;;;;;;;;;;;12.41;47.03;101440.72;4953714;28;19914;-83
2022/02/11 11:28:52;;;;;;;;;;;;;;;13.07;45.45;101442.56;4958752;29;19914;-82
2022/02/11 11:31:51;;;;;;;;;;;;;;;13.40;44.46;101443.06;4959605;28;19914;-83
2022/02/11 11:34:36;;;;;;;;;;;;;;;13.76;43.56;101439.31;4962304;28;19922;-82
2022/02/11 11:37:20;;;;;;;;;;;;;;;14.16;42.64;101443.53;4959682;28;19915;-82
2022/02/11 11:40:23;;;;;;;;;;;;;;;14.34;41.77;101434.19;4946524;28;19914;-82
2022/02/11 11:43:12;;;;;;;;;;;;;;;14.93;41.02;101442.69;4956377;28;19914;-82
2022/02/11 11:46:03;;;;;;;;;;;;;;;15.04;40.71;101440.38;4955834;28;19915;-81
2022/02/11 11:49:12;;;;;;;;;;;;;;;15.50;39.65;101440.34;4966003;28;19914;-85
2022/02/11 11:51:56;;;;;;;;;;;;;;;14.39;41.89;101430.53;4957769;28;19918;-83
2022/02/11 11:54:40;;;;;;;;;;;;;;;14.27;42.11;101425.69;4965137;29;19918;-85
2022/02/11 11:57:35;;;;;;;;;;;;;;;14.68;41.36;101432.59;4956729;28;19923;-83
2022/02/11 12:00:39;;;;;;;;;;;;;;;14.40;41.81;101430.22;4950288;28;19914;-84
2022/02/11 12:03:23;;;;;;;;;;;;;;;14.32;42.35;101428.25;4956467;28;19929;-84
2022/02/11 12:06:15;;;;;;;;;;;;;;;14.59;41.57;101429.03;4962398;28;19914;-83
2022/02/11 12:09:01;;;;;;;;;;;;;;;14.38;42.07;101418.78;4954277;29;19914;-84
2022/02/11 12:11:47;;;;;;;;;;;;;;;14.68;41.44;101419.69;4957163;28;19918;-84
2022/02/11 12:14:34;;;;;;;;;;;;;;;15.04;40.73;101419.25;4957844;28;19927;-85
2022/02/11 12:17:19;;;;;;;;;;;;;;;15.80;39.17;101420.03;4946568;29;19918;-83
2022/02/11 12:20:05;;;;;;;;;;;;;;;14.68;41.34;101414.22;4956494;28;19914;-84
2022/02/11 12:27:20;;;;;;;;;;;;;;;13.92;43.68;101402.97;4951433;28;19914;-83
2022/02/11 12:28:57;;;;;;;;;;;;;;;15.31;41.04;101405.13;4950876;28;19914;-83
2022/02/11 12:31:49;;;;;;;;;;;;;;;15.80;40.50;101403.56;4959039;28;19914;-83
2022/02/11 12:34:36;;;;;;;;;;;;;;;16.57;38.45;101398.56;4959894;28;19926;-84
2022/02/11 12:37:21;;;;;;;;;;;;;;;15.49;40.42;101400.34;4958514;28;19914;-82
2022/02/11 12:40:10;;;;;;;;;;;;;;;15.18;41.42;101400.69;4972846;28;19919;-82
2022/02/11 12:42:56;;;;;;;;;;;;;;;15.40;41.47;101386.69;4965502;29;19914;-82
2022/02/11 12:45:42;;;;;;;;;;;;;;;16.30;39.44;101375.25;4969555;28;19918;-82
2022/02/11 12:48:33;;;;;;;;;;;;;;;15.91;40.05;101378.50;4964705;28;19915;-83
2022/02/11 12:51:18;;;;;;;;;;;;;;;15.85;40.33;101380.63;4964409;29;19915;-82
2022/02/11 12:54:04;;;;;;;;;;;;;;;16.02;39.68;101375.03;4964418;28;19918;-82
2022/02/11 12:57:02;;;;;;;;;;;;;;;16.55;38.96;101368.72;4982714;28;19918;-82
2022/02/11 12:59:50;;;;;;;;;;;;;;;16.20;39.52;101359.22;4970824;28;19919;-82
2022/02/11 13:02:36;;;;;;;;;;;;;;;15.32;41.81;101365.66;4964717;28;20387;-81
2022/02/11 13:05:24;;;;;;;;;;;;;;;15.70;41.21;101356.53;4969251;28;19914;-83
2022/02/11 13:08:09;;;;;;;;;;;;;;;16.03;40.81;101354.69;4968520;28;19915;-82
2022/02/11 13:10:56;;;;;;;;;;;;;;;16.77;39.16;101351.03;4975224;28;19914;-81
2022/02/11 13:13:40;;;;;;;;;;;;;;;16.52;39.57;101350.16;4968325;28;19918;-83
2022/02/11 13:16:25;;;;;;;;;;;;;;;16.32;40.06;101340.03;4968110;28;20300;-83
2022/02/11 13:19:11;;;;;;;;;;;;;;;18.57;35.54;101350.22;4975216;28;19915;-83
2022/02/11 13:21:55;;;;;;;;;;;;;;;21.63;30.49;101345.00;4972979;28;19914;-83
2022/02/11 13:24:40;;;;;;;;;;;;;;;19.26;34.00;101337.75;4961950;29;19915;-84
2022/02/11 13:27:54;;;;;;;;;;;;;;;18.29;36.04;101333.69;4968138;28;19914;-83
2022/02/11 13:30:43;;;;;;;;;;;;;;;19.11;34.82;101349.59;4965744;28;19915;-81
2022/02/11 13:33:37;;;;;;;;;;;;;;;20.17;32.78;101343.69;4969162;28;20303;-81
2022/02/11 13:36:23;;;;;;;;;;;;;;;19.87;33.14;101351.75;4966676;29;19915;-83
2022/02/11 13:39:07;;;;;;;;;;;;;;;19.22;34.58;101353.41;4974362;28;19915;-84
2022/02/11 13:41:52;;;;;;;;;;;;;;;20.54;32.10;101343.22;4977965;28;19914;-84
2022/02/11 13:44:37;;;;;;;;;;;;;;;22.02;29.96;101347.50;4976269;28;19918;-84
2022/02/11 13:47:24;;;;;;;;;;;;;;;20.10;32.37;101346.31;4974635;28;19914;-84
2022/02/11 13:50:08;;;;;;;;;;;;;;;20.39;32.02;101345.72;4978053;28;19914;-84
2022/02/11 13:53:03;;;;;;;;;;;;;;;20.63;31.93;101346.53;4976796;28;19914;-84
2022/02/11 13:55:51;;;;;;;;;;;;;;;19.14;34.58;101348.91;4974223;29;19919;-83
2022/02/11 13:58:36;;;;;;;;;;;;;;;18.27;36.52;101358.06;4974517;28;20371;-83
2022/02/11 14:01:26;;;;;;;;;;;;;;;17.13;38.98;101346.69;4973748;28;20376;-83
2022/02/11 14:04:18;;;;;;;;;;;;;;;16.52;40.65;101344.66;4974217;28;19915;-84
2022/02/11 14:07:03;;;;;;;;;;;;;;;15.94;42.40;101334.75;4973644;28;19915;-84
2022/02/11 14:09:48;;;;;;;;;;;;;;;15.51;43.11;101331.50;4975981;28;19915;-83
2022/02/11 14:12:33;;;;;;;;;;;;;;;14.92;45.41;101340.53;4972974;28;20331;-83
2022/02/11 14:15:17;;;;;;;;;;;;;;;14.76;46.01;101333.19;4973007;28;19919;-83
2022/02/11 14:18:03;;;;;;;;;;;;;;;14.28;47.34;101333.44;4974758;28;19914;-83
2022/02/11 14:20:47;;;;;;;;;;;;;;;13.68;49.31;101331.56;4973469;28;19914;-84
2022/02/11 14:23:32;;;;;;;;;;;;;;;13.32;50.47;101340.03;4976024;28;19914;-84
2022/02/11 14:26:16;;;;;;;;;;;;;;;12.93;52.07;101337.31;4975166;28;19914;-82
2022/02/11 14:29:00;;;;;;;;;;;;;;;13.17;52.09;101337.75;4973001;29;20130;-82
2022/02/11 14:31:46;;;;;;;;;;;;;;;12.85;53.18;101345.16;4976814;28;19914;-83
2022/02/11 14:34:31;;;;;;;;;;;;;;;12.84;53.46;101359.13;4972350;28;19918;-83
2022/02/11 14:37:17;;;;;;;;;;;;;;;12.91;53.71;101351.28;4972291;28;20046;-83
2022/02/11 14:40:02;;;;;;;;;;;;;;;13.05;53.47;101353.91;4972346;28;19915;-83
2022/02/11 14:42:46;;;;;;;;;;;;;;;13.03;53.76;101353.41;4965027;28;19914;-83
2022/02/11 14:45:31;;;;;;;;;;;;;;;13.16;53.74;101347.88;4971032;28;19914;-84
2022/02/11 14:48:16;;;;;;;;;;;;;;;12.98;54.46;101353.56;4976092;28;20391;-83
2022/02/11 14:51:00;;;;;;;;;;;;;;;12.99;54.42;101345.06;4980776;28;20291;-81
2022/02/11 14:53:45;;;;;;;;;;;;;;;13.12;54.44;101340.63;4962487;29;20415;-82
2022/02/11 14:56:31;;;;;;;;;;;;;;;13.08;54.47;101351.34;4967252;28;19914;-82
2022/02/11 14:59:15;;;;;;;;;;;;;;;13.05;54.44;101354.72;4962733;28;20087;-83
2022/02/11 15:02:00;;;;;;;;;;;;;;;13.01;54.58;101350.19;4964458;28;19914;-82
2022/02/11 15:04:46;;;;;;;;;;;;;;;13.19;54.43;101357.38;4960608;28;19919;-83
2022/02/11 15:07:31;;;;;;;;;;;;;;;13.32;54.33;101356.41;4957342;28;19915;-85
2022/02/11 15:10:15;;;;;;;;;;;;;;;13.29;54.65;101343.41;4956857;28;19918;-84
2022/02/11 15:13:08;;;;;;;;;;;;;;;13.28;54.45;101350.00;4954299;28;19914;-84
2022/02/11 15:15:54;;;;;;;;;;;;;;;13.23;54.63;101358.34;4971104;28;20384;-82
2022/02/11 15:18:38;;;;;;;;;;;;;;;12.77;56.27;101356.03;4966264;28;19940;-83
2022/02/11 15:21:23;;;;;;;;;;;;;;;12.58;57.00;101359.00;4962254;28;19915;-83
2022/02/11 15:24:08;;;;;;;;;;;;;;;12.62;57.29;101353.72;4968986;28;20134;-83
2022/02/11 15:26:55;;;;;;;;;;;;;;;12.56;57.77;101358.50;4958841;28;19915;-84
2022/02/11 15:29:41;;;;;;;;;;;;;;;12.46;57.97;101356.03;4961858;29;19914;-82
2022/02/11 15:32:26;;;;;;;;;;;;;;;12.56;57.84;101366.69;4958577;29;20198;-82
2022/02/11 15:35:11;;;;;;;;;;;;;;;12.59;57.71;101365.25;4947079;29;19919;-83
2022/02/11 15:37:56;;;;;;;;;;;;;;;12.59;57.85;101368.00;4952035;28;19915;-83
2022/02/11 15:40:41;;;;;;;;;;;;;;;12.59;57.85;101366.06;4956672;28;19914;-84
2022/02/11 15:43:27;;;;;;;;;;;;;;;12.54;57.98;101368.94;4964055;29;19915;-82
2022/02/11 15:46:12;;;;;;;;;;;;;;;12.50;58.17;101378.84;4965596;28;20399;-84
2022/02/11 15:48:56;;;;;;;;;;;;;;;12.41;58.40;101380.72;4969238;28;19918;-84
2022/02/11 15:51:41;;;;;;;;;;;;;;;12.37;59.04;101390.63;4965517;28;19915;-84
2022/02/11 15:54:25;;;;;;;;;;;;;;;12.31;58.81;101386.41;4964680;28;19918;-84
2022/02/11 15:57:10;;;;;;;;;;;;;;;12.46;58.94;101393.41;4964834;28;19914;-83
2022/02/11 15:59:54;;;;;;;;;;;;;;;12.35;59.08;101392.84;4965849;28;19915;-84
2022/02/11 16:02:39;;;;;;;;;;;;;;;11.97;60.38;101392.41;4964922;28;19914;-84
2022/02/11 16:05:24;;;;;;;;;;;;;;;11.95;60.27;101405.53;4975144;28;19914;-83
2022/02/11 16:08:08;;;;;;;;;;;;;;;11.83;60.81;101403.38;4969123;28;19914;-83
2022/02/11 16:10:52;;;;;;;;;;;;;;;11.84;60.90;101404.94;4968899;28;19914;-84
2022/02/11 16:13:37;;;;;;;;;;;;;;;11.62;61.60;101407.59;4966434;28;19926;-83
2022/02/11 16:16:21;;;;;;;;;;;;;;;11.45;61.91;101421.03;4970718;28;19915;-84
2022/02/11 16:19:06;;;;;;;;;;;;;;;11.39;61.97;101430.41;4967843;28;19915;-83
2022/02/11 16:21:50;;;;;;;;;;;;;;;11.24;62.34;101428.78;4968398;28;19915;-84
2022/02/11 16:24:36;;;;;;;;;;;;;;;11.05;62.96;101426.16;4964826;28;19915;-82
2022/02/11 16:27:21;;;;;;;;;;;;;;;10.94;63.19;101423.91;4964077;28;19915;-82
2022/02/11 16:30:05;;;;;;;;;;;;;;;10.85;63.30;101426.53;4969550;28;19914;-81
2022/02/11 16:32:50;;;;;;;;;;;;;;;10.79;63.97;101435.88;4962464;29;19914;-82
2022/02/11 16:35:37;;;;;;;;;;;;;;;10.69;63.89;101439.59;4968892;28;19919;-82
2022/02/11 16:38:22;;;;;;;;;;;;;;;10.58;64.11;101440.88;4970013;28;19914;-82
2022/02/11 16:41:06;;;;;;;;;;;;;;;10.41;64.60;101443.34;4964925;28;19914;-82
2022/02/11 16:43:51;;;;;;;;;;;;;;;10.44;64.58;101447.34;4959993;29;20364;-81
2022/02/11 16:46:36;;;;;;;;;;;;;;;10.42;64.40;101457.72;4970782;28;19914;-81
2022/02/11 16:49:22;;;;;;;;;;;;;;;10.41;64.24;101462.38;4971175;28;19914;-81
2022/02/11 16:52:08;;;;;;;;;;;;;;;10.44;64.22;101466.38;4969913;28;19914;-81
2022/02/11 16:54:53;;;;;;;;;;;;;;;10.43;64.17;101465.59;4963124;29;19918;-80
2022/02/11 16:57:37;;;;;;;;;;;;;;;10.34;64.33;101474.69;4952478;29;19914;-82
2022/02/11 17:00:22;;;;;;;;;;;;;;;10.54;65.67;101479.81;4961515;28;19914;-80
2022/02/11 17:03:06;;;;;;;;;;;;;;;10.89;63.65;101490.13;4950693;28;19915;-80
2022/02/11 17:05:51;;;;;;;;;;;;;;;11.18;62.32;101494.50;4953325;28;19919;-80
2022/02/11 17:08:37;;;;;;;;;;;;;;;11.42;61.32;101500.63;4953890;28;19914;-80
2022/02/11 17:11:21;;;;;;;;;;;;;;;11.63;60.39;101498.31;4948186;29;19914;-80
2022/02/11 17:14:06;;;;;;;;;;;;;;;11.81;59.79;101500.13;4949830;29;19918;-78
2022/02/11 17:16:50;;;;;;;;;;;;;;;11.95;59.20;101507.19;4946342;29;19915;-80
2022/02/11 17:19:35;;;;;;;;;;;;;;;12.06;58.37;101510.50;4953409;28;19914;-80
2022/02/11 17:22:19;;;;;;;;;;;;;;;12.15;57.38;101511.38;4956146;28;19915;-80
2022/02/11 17:25:04;;;;;;;;;;;;;;;12.18;56.38;101516.25;4953959;28;19914;-80
2022/02/11 17:27:49;;;;;;;;;;;;;;;12.28;56.42;101520.66;4953979;28;19922;-81
2022/02/11 17:30:33;;;;;;;;;;;;;;;12.37;55.96;101524.28;4968353;28;19922;-80
2022/02/11 17:33:18;;;;;;;;;;;;;;;12.44;55.66;101521.94;4958664;29;20395;-80
2022/02/11 17:36:03;;;;;;;;;;;;;;;12.49;55.11;101535.47;4963148;28;19919;-81
2022/02/11 17:38:47;;;;;;;;;;;;;;;12.60;55.72;101534.09;4955834;28;19918;-81
2022/02/11 17:41:32;;;;;;;;;;;;;;;12.61;54.99;101537.63;4957525;28;19914;-81
2022/02/11 17:44:16;;;;;;;;;;;;;;;12.68;54.71;101543.47;4959165;28;19914;-81
2022/02/11 17:47:01;;;;;;;;;;;;;;;12.72;54.78;101547.19;4960204;28;19914;-80
2022/02/11 17:49:46;;;;;;;;;;;;;;;12.78;54.84;101549.50;4965405;28;19914;-84
2022/02/11 17:52:32;;;;;;;;;;;;;;;12.85;55.19;101560.78;4965874;29;20384;-84
2022/02/11 17:55:16;;;;;;;;;;;;;;;12.89;53.86;101565.66;4966287;28;19918;-84
2022/02/11 17:58:00;;;;;;;;;;;;;;;12.92;53.80;101567.75;4967339;28;19918;-84
2022/02/11 18:00:45;;;;;;;;;;;;;;;12.89;52.79;101576.56;4958692;28;20287;-81
2022/02/11 18:03:29;;;;;;;;;;;;;;;12.93;52.67;101574.81;4959121;28;19914;-81